createdAt,value
2022-12-19T00:01:35.990Z,25.33
2022-12-19T00:04:08.138Z,25.35
2022-12-19T00:06:36.026Z,25.37
2022-12-19T00:09:02.726Z,23.98
2022-12-19T00:11:29.646Z,24.20
2022-12-19T00:13:56.729Z,26.50
2022-12-19T00:16:26.051Z,24.50
2022-12-19T00:18:55.097Z,23.33
2022-12-19T00:21:24.497Z,25.90
2022-12-19T00:23:51.799Z,24.35
2022-12-19T00:26:21.663Z,25.73
2022-12-19T00:28:50.640Z,23.90
2022-12-19T00:31:18.775Z,23.40
2022-12-19T00:33:45.599Z,25.17
2022-12-19T00:36:15.184Z,25.88
2022-12-19T00:38:45.004Z,26.83
2022-12-19T00:41:13.948Z,23.52
2022-12-19T00:43:41.321Z,23.88
2022-12-19T00:46:13.703Z,23.80
2022-12-19T00:48:41.049Z,24.73
2022-12-19T00:51:11.038Z,24.70
2022-12-19T00:53:37.584Z,23.55
2022-12-19T00:56:06.835Z,23.27
2022-12-19T00:58:35.618Z,24.08
2022-12-19T01:01:10.626Z,24.80
2022-12-19T01:03:37.532Z,23.65
2022-12-19T01:06:04.731Z,25.00
2022-12-19T01:08:31.926Z,24.15
2022-12-19T01:10:58.686Z,22.58
2022-12-19T01:13:27.738Z,22.77
2022-12-19T01:15:54.338Z,23.67
2022-12-19T01:18:20.812Z,24.27
2022-12-19T01:20:47.532Z,23.98
2022-12-19T01:23:16.372Z,23.20
2022-12-19T01:25:47.944Z,24.77
2022-12-19T01:28:15.647Z,25.30
2022-12-19T01:30:42.878Z,24.27
2022-12-19T01:33:14.559Z,23.70
2022-12-19T01:35:42.330Z,24.02
2022-12-19T01:38:14.475Z,22.73
2022-12-19T01:40:40.976Z,22.55
2022-12-19T01:43:13.779Z,25.70
2022-12-19T01:45:45.704Z,24.40
2022-12-19T01:48:38.686Z,24.92
2022-12-19T01:51:14.057Z,23.70
2022-12-19T01:53:49.843Z,23.98
2022-12-19T01:56:19.443Z,23.48
2022-12-19T01:58:46.550Z,23.98
2022-12-19T02:01:14.511Z,23.55
2022-12-19T02:03:41.633Z,23.95
2022-12-19T02:06:08.767Z,22.52
2022-12-19T02:08:36.588Z,23.48
2022-12-19T02:11:03.069Z,24.25
2022-12-19T02:13:29.862Z,22.75
2022-12-19T02:16:15.215Z,22.70
2022-12-19T02:18:51.834Z,22.83
2022-12-19T02:21:25.281Z,24.15
2022-12-19T02:24:16.358Z,22.60
2022-12-19T02:26:42.791Z,22.42
2022-12-19T02:29:38.654Z,21.85
2022-12-19T02:32:07.060Z,22.35
2022-12-19T02:34:44.255Z,24.30
2022-12-19T02:37:17.740Z,22.52
2022-12-19T02:42:26.646Z,21.35
2022-12-19T02:44:57.302Z,21.95
2022-12-19T02:47:24.625Z,23.13
2022-12-19T02:49:51.134Z,22.33
2022-12-19T02:52:20.583Z,22.40
2022-12-19T02:54:50.208Z,23.63
2022-12-19T02:57:23.457Z,21.33
2022-12-19T03:00:05.902Z,23.35
2022-12-19T03:03:01.507Z,22.13
2022-12-19T03:05:35.423Z,22.10
2022-12-19T03:08:45.088Z,23.88
2022-12-19T03:11:14.781Z,20.85
2022-12-19T03:14:07.375Z,22.85
2022-12-19T03:16:35.806Z,21.95
2022-12-19T03:19:02.973Z,21.23
2022-12-19T03:21:36.592Z,23.02
2022-12-19T03:24:05.170Z,23.20
2022-12-19T03:26:38.310Z,21.50
2022-12-19T03:29:23.142Z,23.73
2022-12-19T03:31:50.056Z,24.48
2022-12-19T03:34:31.471Z,21.02
2022-12-19T03:37:03.363Z,23.25
2022-12-19T03:39:32.342Z,22.17
2022-12-19T03:42:19.676Z,21.60
2022-12-19T03:44:49.884Z,20.90
2022-12-19T03:47:47.060Z,21.40
2022-12-19T03:50:14.136Z,21.77
2022-12-19T03:52:52.572Z,20.48
2022-12-19T03:55:32.106Z,22.70
2022-12-19T03:58:06.836Z,21.80
2022-12-19T04:00:37.882Z,20.75
2022-12-19T04:03:05.758Z,21.55
2022-12-19T04:05:33.846Z,21.42
2022-12-19T04:08:05.662Z,23.23
2022-12-19T04:10:39.207Z,20.63
2022-12-19T04:15:47.510Z,20.80
2022-12-19T04:18:15.943Z,20.60
2022-12-19T04:20:49.375Z,19.58
2022-12-19T04:23:27.192Z,20.75
2022-12-19T04:26:00.199Z,21.58
2022-12-19T04:28:40.695Z,21.70
2022-12-19T04:31:07.979Z,20.65
2022-12-19T04:33:34.476Z,21.58
2022-12-19T04:36:00.984Z,22.65
2022-12-19T04:38:27.783Z,22.30
2022-12-19T04:40:54.295Z,21.77
2022-12-19T04:43:20.809Z,21.50
2022-12-19T04:45:47.270Z,22.45
2022-12-19T04:48:15.460Z,22.42
2022-12-19T04:50:41.938Z,23.88
2022-12-19T04:53:08.467Z,20.48
2022-12-19T04:55:35.106Z,21.77
2022-12-19T04:58:01.671Z,21.30
2022-12-19T05:00:28.157Z,20.65
2022-12-19T05:02:54.750Z,22.98
2022-12-19T05:05:21.369Z,23.33
2022-12-19T05:07:47.807Z,22.40
2022-12-19T05:10:14.485Z,23.73
2022-12-19T05:12:40.982Z,22.45
2022-12-19T05:15:08.033Z,21.92
2022-12-19T05:17:34.785Z,21.38
2022-12-19T05:20:01.310Z,21.85
2022-12-19T05:22:27.996Z,21.40
2022-12-19T05:24:54.467Z,22.35
2022-12-19T05:27:21.037Z,21.33
2022-12-19T05:29:47.530Z,20.33
2022-12-19T05:32:13.967Z,21.67
2022-12-19T05:34:40.458Z,22.35
2022-12-19T05:37:06.905Z,20.92
2022-12-19T05:39:33.428Z,21.98
2022-12-19T05:41:59.900Z,22.65
2022-12-19T05:44:26.683Z,21.65
2022-12-19T05:46:53.284Z,21.98
2022-12-19T05:49:19.745Z,24.42
2022-12-19T05:51:46.728Z,22.35
2022-12-19T05:54:13.210Z,22.45
2022-12-19T05:56:39.675Z,22.58
2022-12-19T05:59:06.461Z,19.85
2022-12-19T06:01:33.050Z,23.27
2022-12-19T06:03:59.669Z,22.30
2022-12-19T06:06:26.979Z,22.60
2022-12-19T06:08:58.719Z,21.40
2022-12-19T06:11:26.042Z,21.33
2022-12-19T06:13:53.009Z,22.35
2022-12-19T06:16:21.041Z,23.20
2022-12-19T06:18:47.654Z,20.95
2022-12-19T06:21:22.040Z,22.08
2022-12-19T06:23:49.089Z,22.65
2022-12-19T06:26:19.974Z,23.50
2022-12-19T06:28:48.327Z,22.25
2022-12-19T06:31:15.743Z,21.88
2022-12-19T06:33:42.415Z,21.15
2022-12-19T06:36:27.043Z,20.80
2022-12-19T06:38:55.284Z,21.73
2022-12-19T06:41:40.333Z,21.98
2022-12-19T06:44:12.171Z,21.67
2022-12-19T06:46:40.110Z,20.58
2022-12-19T06:49:07.389Z,22.33
2022-12-19T06:51:33.984Z,21.77
2022-12-19T06:54:00.632Z,22.38
2022-12-19T06:56:27.145Z,21.23
2022-12-19T06:58:53.662Z,21.08
2022-12-19T07:01:22.025Z,21.67
2022-12-19T07:03:49.291Z,22.42
2022-12-19T07:06:15.827Z,21.13
2022-12-19T07:08:42.610Z,21.50
2022-12-19T07:11:09.077Z,20.90
2022-12-19T07:13:35.542Z,20.52
2022-12-19T07:16:04.361Z,21.10
2022-12-19T07:18:34.447Z,21.88
2022-12-19T07:21:01.671Z,21.90
2022-12-19T07:23:29.340Z,21.60
2022-12-19T07:25:55.895Z,22.80
2022-12-19T07:28:22.503Z,21.42
2022-12-19T07:30:48.972Z,21.17
2022-12-19T07:33:21.033Z,21.45
2022-12-19T07:35:48.277Z,20.85
2022-12-19T07:38:14.762Z,22.48
2022-12-19T07:40:41.199Z,21.73
2022-12-19T07:43:07.793Z,19.33
2022-12-19T07:45:37.244Z,22.15
2022-12-19T07:48:05.566Z,20.77
2022-12-19T07:50:32.797Z,22.00
2022-12-19T07:52:59.941Z,20.10
2022-12-19T07:55:26.957Z,20.40
2022-12-19T07:57:53.922Z,21.15
2022-12-19T08:00:21.567Z,19.23
2022-12-19T08:02:48.375Z,19.73
2022-12-19T08:05:15.084Z,21.75
2022-12-19T08:07:41.588Z,21.13
2022-12-19T08:10:08.970Z,21.10
2022-12-19T08:12:35.461Z,20.63
2022-12-19T08:15:01.892Z,20.90
2022-12-19T08:17:28.472Z,21.60
2022-12-19T08:19:54.942Z,20.33
2022-12-19T08:22:21.417Z,19.55
2022-12-19T08:24:47.893Z,20.80
2022-12-19T08:27:16.439Z,19.92
2022-12-19T08:29:42.987Z,20.75
2022-12-19T08:32:09.538Z,20.55
2022-12-19T08:34:35.966Z,19.48
2022-12-19T08:37:02.453Z,20.88
2022-12-19T08:39:28.955Z,21.63
2022-12-19T08:41:55.437Z,19.63
2022-12-19T08:44:22.043Z,20.42
2022-12-19T08:46:50.469Z,19.33
2022-12-19T08:49:18.642Z,21.27
2022-12-19T08:51:46.024Z,20.50
2022-12-19T08:54:12.566Z,18.27
2022-12-19T08:56:41.388Z,18.45
2022-12-19T08:59:13.314Z,18.80
2022-12-19T09:01:41.564Z,19.10
2022-12-19T09:04:51.709Z,18.40
2022-12-19T09:06:54.620Z,18.90
2022-12-19T09:09:21.176Z,18.10
2022-12-19T09:11:48.447Z,20.38
2022-12-19T09:14:14.985Z,18.60
2022-12-19T09:16:47.066Z,18.35
2022-12-19T09:19:15.626Z,18.02
2022-12-19T09:21:43.398Z,19.38
2022-12-19T09:24:10.736Z,16.58
2022-12-19T09:26:41.999Z,17.92
2022-12-19T09:29:19.880Z,18.55
2022-12-19T09:31:53.901Z,17.02
2022-12-19T09:34:24.034Z,19.13
2022-12-19T09:36:52.167Z,17.52
2022-12-19T09:39:18.741Z,18.75
2022-12-19T09:41:45.149Z,17.65
2022-12-19T09:44:17.582Z,18.73
2022-12-19T09:46:52.386Z,19.42
2022-12-19T09:49:25.018Z,18.42
2022-12-19T09:52:10.981Z,17.70
2022-12-19T09:54:46.077Z,17.52
2022-12-19T09:57:23.102Z,16.83
2022-12-19T10:00:20.519Z,17.92
2022-12-19T10:02:54.375Z,17.45
2022-12-19T10:06:58.939Z,18.10
2022-12-19T10:08:43.074Z,17.90
2022-12-19T10:12:44.974Z,17.30
2022-12-19T10:14:36.632Z,17.77
2022-12-19T10:17:30.111Z,17.92
2022-12-19T10:20:18.133Z,17.77
2022-12-19T10:22:47.794Z,17.58
2022-12-19T10:25:50.484Z,17.15
2022-12-19T10:28:36.590Z,16.58
2022-12-19T10:31:22.240Z,17.30
2022-12-19T10:33:57.063Z,17.17
2022-12-19T10:36:48.750Z,17.33
2022-12-19T10:39:35.888Z,18.38
2022-12-19T10:42:15.835Z,17.35
2022-12-19T10:44:45.436Z,16.98
2022-12-19T10:47:17.176Z,17.65
2022-12-19T10:49:43.676Z,17.58
2022-12-19T10:52:12.611Z,17.02
2022-12-19T10:54:41.053Z,18.27
2022-12-19T10:57:27.075Z,18.27
2022-12-19T11:00:06.573Z,19.33
2022-12-19T11:02:39.103Z,19.08
2022-12-19T11:05:21.152Z,17.60
2022-12-19T11:08:06.835Z,17.40
2022-12-19T11:14:36.530Z,17.40
2022-12-19T11:17:33.615Z,19.48
2022-12-19T11:23:11.980Z,16.67
2022-12-19T11:29:17.074Z,19.92
2022-12-19T11:29:33.802Z,17.15
2022-12-19T11:30:36.478Z,16.50
2022-12-19T11:30:40.968Z,17.10
2022-12-19T11:31:29.642Z,16.30
2022-12-19T11:33:47.394Z,17.73
2022-12-19T11:36:32.803Z,16.98
2022-12-19T11:38:59.906Z,18.30
2022-12-19T11:41:57.321Z,18.33
2022-12-19T11:44:37.248Z,16.67
2022-12-19T11:47:11.465Z,17.45
2022-12-19T11:49:47.384Z,18.90
2022-12-19T11:55:54.152Z,17.50
2022-12-19T11:58:24.079Z,17.45
2022-12-19T12:00:58.486Z,16.95
2022-12-19T12:03:53.919Z,19.75
2022-12-19T12:06:46.100Z,17.20
2022-12-19T12:13:15.039Z,17.30
2022-12-19T12:21:44.787Z,18.73
2022-12-19T12:27:17.391Z,16.98
2022-12-19T12:31:06.026Z,18.23
2022-12-19T12:31:18.281Z,17.83
2022-12-19T12:31:46.437Z,16.30
2022-12-19T12:31:51.386Z,17.98
2022-12-19T12:32:05.786Z,16.63
2022-12-19T12:35:33.020Z,18.13
2022-12-19T12:40:42.153Z,17.08
2022-12-19T12:43:17.169Z,17.83
2022-12-19T12:45:47.695Z,17.88
2022-12-19T12:48:32.782Z,18.48
2022-12-19T12:51:00.658Z,17.67
2022-12-19T12:53:34.525Z,18.20
2022-12-19T12:56:03.220Z,17.77
2022-12-19T12:58:45.408Z,17.08
2022-12-19T13:01:20.324Z,18.27
2022-12-19T13:03:54.828Z,16.98
2022-12-19T13:09:02.013Z,16.00
2022-12-19T13:11:46.861Z,15.15
2022-12-19T13:14:35.283Z,16.15
2022-12-19T13:17:02.777Z,15.73
2022-12-19T13:19:31.477Z,16.58
2022-12-19T13:22:03.664Z,15.20
2022-12-19T13:24:56.757Z,16.38
2022-12-19T13:27:24.726Z,16.90
2022-12-19T13:30:00.428Z,15.40
2022-12-19T13:32:33.711Z,15.02
2022-12-19T13:35:23.648Z,15.82
2022-12-19T13:39:55.540Z,15.05
2022-12-19T13:40:59.187Z,15.98
2022-12-19T13:43:49.647Z,17.15
2022-12-19T13:46:38.035Z,15.80
2022-12-19T13:49:19.574Z,16.60
2022-12-19T13:51:49.300Z,15.52
2022-12-19T13:54:32.918Z,15.90
2022-12-19T13:57:03.037Z,16.10
2022-12-19T13:59:38.633Z,14.23
2022-12-19T14:02:17.725Z,14.07
2022-12-19T14:04:44.903Z,15.40
2022-12-19T14:07:38.369Z,18.00
2022-12-19T14:11:40.923Z,17.08
2022-12-19T14:13:41.589Z,16.77
2022-12-19T14:16:34.829Z,14.88
2022-12-19T14:19:19.709Z,14.57
2022-12-19T14:22:10.855Z,15.50
2022-12-19T14:24:32.702Z,15.90
2022-12-19T14:28:18.428Z,15.88
2022-12-19T14:30:28.326Z,15.20
2022-12-19T14:33:39.577Z,15.65
2022-12-19T14:36:10.777Z,14.68
2022-12-19T14:39:27.800Z,15.75
2022-12-19T14:41:40.857Z,16.95
2022-12-19T14:51:42.576Z,15.18
2022-12-19T14:51:42.793Z,14.60
2022-12-19T14:54:02.261Z,14.70
2022-12-19T14:54:48.108Z,14.73
2022-12-19T14:56:14.095Z,14.88
2022-12-19T14:58:54.064Z,13.88
2022-12-19T15:01:26.888Z,14.10
2022-12-19T15:04:53.198Z,14.15
2022-12-19T15:07:09.332Z,15.40
2022-12-19T15:11:04.445Z,12.82
2022-12-19T15:14:47.270Z,13.95
2022-12-19T15:15:51.379Z,13.38
2022-12-19T15:18:23.951Z,15.00
2022-12-19T15:20:52.307Z,13.90
2022-12-19T15:23:22.385Z,13.70
2022-12-19T15:26:07.041Z,13.95
2022-12-19T15:28:47.966Z,14.60
2022-12-19T15:31:24.590Z,12.63
2022-12-19T15:34:32.405Z,14.07
2022-12-19T15:36:37.648Z,13.48
2022-12-19T15:39:04.427Z,13.73
2022-12-19T15:41:31.355Z,14.65
2022-12-19T15:44:05.863Z,14.32
2022-12-19T15:46:33.470Z,14.82
2022-12-19T15:49:00.147Z,15.00
2022-12-19T15:51:26.738Z,13.85
2022-12-19T15:53:53.536Z,14.80
2022-12-19T15:56:28.603Z,13.18
2022-12-19T15:58:57.219Z,13.50
2022-12-19T16:01:23.919Z,14.45
2022-12-19T16:03:51.224Z,14.63
2022-12-19T16:06:18.259Z,15.88
2022-12-19T16:08:44.787Z,14.23
2022-12-19T16:11:23.418Z,15.20
2022-12-19T16:13:55.587Z,13.98
2022-12-19T16:16:22.584Z,14.93
2022-12-19T16:18:49.240Z,14.82
2022-12-19T16:21:31.542Z,14.68
2022-12-19T16:24:00.622Z,14.50
2022-12-19T16:26:33.464Z,14.10
2022-12-19T16:29:00.610Z,14.85
2022-12-19T16:31:27.963Z,14.70
2022-12-19T16:33:55.856Z,15.13
2022-12-19T16:36:22.652Z,15.10
2022-12-19T16:38:49.261Z,14.65
2022-12-19T16:41:23.259Z,15.13
2022-12-19T16:43:50.421Z,14.25
2022-12-19T16:46:21.732Z,14.68
2022-12-19T16:48:49.010Z,14.68
2022-12-19T16:51:21.249Z,14.68
2022-12-19T16:53:49.139Z,14.60
2022-12-19T16:56:32.660Z,15.05
2022-12-19T16:59:01.929Z,14.93
2022-12-19T17:01:29.000Z,14.57
2022-12-19T17:03:55.739Z,14.85
2022-12-19T17:06:23.566Z,13.82
2022-12-19T17:08:50.114Z,15.00
2022-12-19T17:11:24.307Z,15.93
2022-12-19T17:14:01.287Z,15.40
2022-12-19T17:16:29.765Z,15.65
2022-12-19T17:18:57.884Z,15.27
2022-12-19T17:21:24.493Z,14.52
2022-12-19T17:23:51.318Z,14.25
2022-12-19T17:26:18.635Z,15.93
2022-12-19T17:28:48.277Z,15.75
2022-12-19T17:31:28.361Z,13.52
2022-12-19T17:33:57.767Z,14.68
2022-12-19T17:36:32.871Z,15.13
2022-12-19T17:39:03.935Z,15.32
2022-12-19T17:41:30.721Z,14.98
2022-12-19T17:43:57.384Z,14.95
2022-12-19T17:46:25.270Z,16.13
2022-12-19T17:48:53.532Z,15.18
2022-12-19T17:51:21.995Z,15.43
2022-12-19T17:53:49.489Z,14.68
2022-12-19T17:56:18.591Z,14.88
2022-12-19T17:58:45.147Z,15.40
2022-12-19T18:01:19.643Z,14.43
2022-12-19T18:03:47.667Z,15.85
2022-12-19T18:06:14.769Z,15.07
2022-12-19T18:08:42.126Z,16.33
2022-12-19T18:11:17.912Z,14.30
2022-12-19T18:13:44.474Z,14.77
2022-12-19T18:16:15.458Z,14.65
2022-12-19T18:18:42.151Z,15.15
2022-12-19T18:21:14.316Z,16.15
2022-12-19T18:23:40.932Z,14.85
2022-12-19T18:26:07.930Z,15.40
2022-12-19T18:28:34.415Z,16.05
2022-12-19T18:31:09.776Z,15.00
2022-12-19T18:33:41.122Z,14.88
2022-12-19T18:36:14.936Z,13.38
2022-12-19T18:38:41.390Z,13.82
2022-12-19T18:41:10.868Z,14.80
2022-12-19T18:43:37.362Z,13.65
2022-12-19T18:46:04.249Z,13.48
2022-12-19T18:48:39.237Z,14.32
2022-12-19T18:51:06.092Z,14.50
2022-12-19T18:53:35.785Z,15.50
2022-12-19T18:56:04.833Z,14.45
2022-12-19T18:58:31.707Z,14.55
2022-12-19T19:01:00.441Z,14.82
2022-12-19T19:03:33.700Z,14.60
2022-12-19T19:06:00.908Z,14.00
2022-12-19T19:08:33.208Z,14.32
2022-12-19T19:11:00.527Z,14.75
2022-12-19T19:13:27.209Z,13.95
2022-12-19T19:15:57.666Z,13.73
2022-12-19T19:18:45.078Z,15.10
2022-12-19T19:21:14.591Z,13.00
2022-12-19T19:23:47.406Z,14.13
2022-12-19T19:26:13.849Z,10.95
2022-12-19T19:28:40.362Z,13.30
2022-12-19T19:31:11.105Z,13.57
2022-12-19T19:33:41.813Z,13.63
2022-12-19T19:36:13.567Z,14.70
2022-12-19T19:38:44.132Z,14.20
2022-12-19T19:41:10.751Z,14.02
2022-12-19T19:43:37.224Z,13.38
2022-12-19T19:46:04.426Z,13.63
2022-12-19T19:48:31.357Z,14.82
2022-12-19T19:50:58.401Z,15.50
2022-12-19T19:53:25.024Z,14.70
2022-12-19T19:56:10.903Z,13.63
2022-12-19T19:58:37.501Z,20.00
2022-12-19T20:01:12.742Z,16.15
2022-12-19T20:03:40.308Z,14.05
2022-12-19T20:06:07.439Z,13.05
2022-12-19T20:08:39.680Z,14.10
2022-12-19T20:11:06.930Z,14.35
2022-12-19T20:13:33.406Z,13.60
2022-12-19T20:16:09.035Z,14.95
2022-12-19T20:18:37.733Z,13.55
2022-12-19T20:21:12.320Z,12.90
2022-12-19T20:23:41.324Z,14.48
2022-12-19T20:26:08.354Z,14.45
2022-12-19T20:28:35.165Z,14.50
2022-12-19T20:31:02.108Z,13.38
2022-12-19T20:33:28.818Z,14.82
2022-12-19T20:35:56.711Z,15.52
2022-12-19T20:38:23.671Z,12.55
2022-12-19T20:40:52.887Z,14.15
2022-12-19T20:43:19.310Z,13.10
2022-12-19T20:45:45.762Z,15.13
2022-12-19T20:48:12.229Z,13.65
2022-12-19T20:50:43.065Z,14.63
2022-12-19T20:53:10.079Z,15.10
2022-12-19T20:55:36.563Z,15.05
2022-12-19T20:58:03.103Z,14.18
2022-12-19T21:00:29.580Z,14.45
2022-12-19T21:05:42.614Z,14.82
2022-12-19T21:08:09.209Z,14.07
2022-12-19T21:10:36.009Z,15.40
2022-12-19T21:13:02.518Z,14.27
2022-12-19T21:15:30.954Z,13.93
2022-12-19T21:17:57.445Z,15.55
2022-12-19T21:20:26.110Z,17.85
2022-12-19T21:22:54.939Z,16.00
2022-12-19T21:25:21.584Z,16.50
2022-12-19T21:27:48.072Z,16.42
2022-12-19T21:30:14.596Z,16.92
2022-12-19T21:32:41.080Z,15.07
2022-12-19T21:35:08.100Z,15.57
2022-12-19T21:37:39.777Z,14.82
2022-12-19T21:40:10.041Z,17.33
2022-12-19T21:42:36.518Z,17.77
2022-12-19T21:45:03.148Z,16.67
2022-12-19T21:47:29.584Z,16.48
2022-12-19T21:49:56.007Z,17.45
2022-12-19T21:52:22.485Z,16.85
2022-12-19T21:54:49.000Z,16.63
2022-12-19T21:57:15.493Z,16.23
2022-12-19T21:59:41.929Z,17.45
2022-12-19T22:02:11.759Z,16.92
2022-12-19T22:04:38.558Z,18.02
2022-12-19T22:07:05.503Z,18.23
2022-12-19T22:09:32.015Z,17.02
2022-12-19T22:11:58.518Z,15.70
2022-12-19T22:14:25.539Z,16.42
2022-12-19T22:16:52.137Z,16.05
2022-12-19T22:19:19.532Z,15.95
2022-12-19T22:21:47.303Z,16.38
2022-12-19T22:24:15.501Z,17.35
2022-12-19T22:26:42.146Z,15.77
2022-12-19T22:29:11.154Z,15.00
2022-12-19T22:31:38.806Z,17.35
2022-12-19T22:34:08.211Z,21.23
2022-12-19T22:36:36.669Z,17.13
2022-12-19T22:39:06.403Z,19.77
2022-12-19T22:41:34.237Z,17.58
2022-12-19T22:44:00.743Z,15.05
2022-12-19T22:46:33.211Z,14.85
2022-12-19T22:49:02.241Z,17.10
2022-12-19T22:51:30.571Z,16.70
2022-12-19T22:53:57.892Z,17.20
2022-12-19T22:56:26.332Z,16.13
2022-12-19T22:58:54.686Z,16.17
2022-12-19T23:01:27.352Z,15.65
2022-12-19T23:03:56.747Z,16.07
2022-12-19T23:06:25.517Z,16.67
2022-12-19T23:08:52.794Z,16.08
2022-12-19T23:11:22.596Z,16.13
2022-12-19T23:13:49.541Z,16.10
2022-12-19T23:16:16.710Z,14.43
2022-12-19T23:18:43.339Z,13.82
2022-12-19T23:21:11.138Z,16.83
2022-12-19T23:23:39.915Z,14.93
2022-12-19T23:26:15.029Z,15.68
2022-12-19T23:28:44.263Z,16.80
2022-12-19T23:31:13.655Z,16.38
2022-12-19T23:33:40.187Z,16.27
2022-12-19T23:36:07.259Z,16.80
2022-12-19T23:38:34.105Z,14.65
2022-12-19T23:41:08.618Z,16.45
2022-12-19T23:43:36.406Z,15.73
2022-12-19T23:46:14.731Z,15.23
2022-12-19T23:48:41.824Z,14.75
2022-12-19T23:51:13.514Z,15.70
2022-12-19T23:53:40.629Z,14.05
2022-12-19T23:56:11.744Z,15.50
2022-12-19T23:58:38.433Z,15.02
